Novato, CA

5:53 AM PST on November 12, 2019 (GMT -0800)
Gnoss

Weather History for KDVO - September, 2019

Change the Weather History Date:

Monday, September 2, 2019

  Actual Average (KAPC) Record (KAPC)
Temperature  
Mean Temperature 68 °F -  
Max Temperature 84 °F 83 °F 107 °F (2017)
Min Temperature 53 °F 54 °F 46 °F (2008)
Cooling Degree Days 4    
Growing Degree Days 18 (Base 50)    
Moisture  
Dew Point 55 °F    
Average Humidity 68    
Maximum Humidity 100    
Minimum Humidity 37    
Precipitation  
Precipitation 0.00 in - - ()
Sea Level Pressure  
Sea Level Pressure 29.93 in    
Wind  
Wind Speed 3 mph ()    
Max Wind Speed 16 mph    
Max Gust Speed 24 mph    
Visibility 10.0 miles    
Events      
Averages and records for this station are not official NWS values.
T = Trace of Precipitation, MM = Missing Value Source: Averaged Metar Reports

Daily Weather History Graph

Daily Weather History Graph

Search for Another Location

Airport or City:

Astronomy

Sep. 02, 2019 Rise Set
Actual Time 6:40 AM PDT 7:38 PM PDT
Civil Twilight 6:13 AM PDT 8:05 PM PDT
Nautical Twilight 5:41 AM PDT 8:37 PM PDT
Astronomical Twilight 5:08 AM PDT 9:10 PM PDT
Moon 10:26 AM PDT (9/2) 10:06 PM PDT (9/2)
Length of Visible Light 13h 51m
Length of Day
12h 57m
Waxing Crescent, 16% of the Moon is Illuminated
Sep 2
Waxing Crescent
Sep 5
First Quarter
Sep 13
Full
Sep 21
Last Quarter
Sep 28
New

Hourly Weather History & Observations

Time (PDT) Temp. Heat Index Dew Point Humidity Pressure Visibility Wind Dir Wind Speed Gust Speed Precip Events Conditions
12:15 AM 64.4 °F - 53.6 °F 68% 29.90 in 10.0 mi Calm Calm - N/A   Clear
12:35 AM 64.4 °F - 53.6 °F 68% 29.90 in 10.0 mi Variable 3.5 mph - N/A   Clear
12:55 AM 64.4 °F - 53.6 °F 68% 29.91 in 10.0 mi Variable 3.5 mph - N/A   Clear
1:15 AM 64.4 °F - 53.6 °F 68% 29.91 in 10.0 mi Calm Calm - N/A   Clear
1:35 AM 64.4 °F - 53.6 °F 68% 29.91 in 10.0 mi Calm Calm - N/A   Clear
1:55 AM 59.0 °F - 51.8 °F 77% 29.91 in 10.0 mi Calm Calm - N/A   Clear
2:15 AM 57.2 °F - 53.6 °F 88% 29.91 in 10.0 mi NE 4.6 mph - N/A   Clear
2:35 AM 60.8 °F - 53.6 °F 77% 29.91 in 10.0 mi Calm Calm - N/A   Clear
2:55 AM 60.8 °F - 53.6 °F 77% 29.91 in 10.0 mi Calm Calm - N/A   Clear
3:15 AM 59.0 °F - 51.8 °F 77% 29.91 in 10.0 mi Calm Calm - N/A   Clear
3:35 AM 59.0 °F - 51.8 °F 77% 29.91 in 10.0 mi Calm Calm - N/A   Clear
3:55 AM 59.0 °F - 51.8 °F 77% 29.91 in 10.0 mi Calm Calm - N/A   Clear
4:15 AM 59.0 °F - 51.8 °F 77% 29.91 in 10.0 mi Calm Calm - N/A   Clear
4:35 AM 57.2 °F - 50.0 °F 77% 29.91 in 10.0 mi Calm Calm - N/A   Clear
4:55 AM 59.0 °F - 51.8 °F 77% 29.91 in 10.0 mi Calm Calm - N/A   Clear
5:15 AM 57.2 °F - 51.8 °F 82% 29.91 in 10.0 mi Calm Calm - N/A   Clear
5:35 AM 59.0 °F - 51.8 °F 77% 29.92 in 10.0 mi Calm Calm - N/A   Clear
5:55 AM 59.0 °F - 55.4 °F 88% 29.92 in 10.0 mi Calm Calm - N/A   Clear
6:15 AM 59.0 °F - 53.6 °F 82% 29.93 in 10.0 mi Calm Calm - N/A   Clear
6:35 AM 59.0 °F - 53.6 °F 82% 29.93 in 10.0 mi Calm Calm - N/A   Clear
6:55 AM 53.6 °F - 51.8 °F 94% 29.93 in 10.0 mi Calm Calm - N/A   Clear
7:15 AM 53.6 °F - 50.0 °F 88% 29.94 in 10.0 mi Calm Calm - N/A   Clear
7:35 AM 57.2 °F - 53.6 °F 88% 29.94 in 10.0 mi Calm Calm - N/A   Clear
7:55 AM 60.8 °F - 55.4 °F 82% 29.94 in 10.0 mi Calm Calm - N/A   Clear
8:15 AM 62.6 °F - 57.2 °F 82% 29.94 in 10.0 mi Calm Calm - N/A   Clear
8:35 AM 66.2 °F - 57.2 °F 73% 29.95 in 10.0 mi Calm Calm - N/A   Clear
8:55 AM 66.2 °F - 57.2 °F 73% 29.95 in 10.0 mi Calm Calm - N/A   Clear
9:15 AM 68.0 °F - 57.2 °F 68% 29.94 in 10.0 mi Calm Calm - N/A   Clear
9:35 AM 69.8 °F - 57.2 °F 64% 29.95 in 10.0 mi Calm Calm - N/A   Clear
9:55 AM 71.6 °F - 57.2 °F 60% 29.95 in 10.0 mi Calm Calm - N/A   Clear
10:15 AM 75.2 °F - 57.2 °F 53% 29.96 in 10.0 mi Calm Calm - N/A   Clear
10:35 AM 75.2 °F - 57.2 °F 53% 29.96 in 10.0 mi SE 4.6 mph - N/A   Clear
10:55 AM 77.0 °F - 59.0 °F 54% 29.96 in 10.0 mi East 4.6 mph - N/A   Clear
11:15 AM 77.0 °F - 60.8 °F 57% 29.96 in 10.0 mi Variable 4.6 mph - N/A   Clear
11:35 AM 77.0 °F - 59.0 °F 54% 29.96 in 10.0 mi East 8.1 mph - N/A   Clear
11:55 AM 78.8 °F - 60.8 °F 54% 29.96 in 10.0 mi Variable 6.9 mph - N/A   Clear
12:15 PM 80.6 °F 81.1 °F 59.0 °F 48% 29.95 in 10.0 mi Variable 4.6 mph - N/A   Clear
12:35 PM 82.4 °F 82.5 °F 59.0 °F 45% 29.95 in 8.0 mi SE 8.1 mph - N/A   Clear
12:55 PM 82.4 °F 82.9 °F 60.8 °F 48% 29.95 in 9.0 mi Variable 6.9 mph 12.7 mph N/A   Clear
1:15 PM 84.2 °F 83.0 °F 55.4 °F 37% 29.94 in 10.0 mi SSW 13.8 mph - N/A   Clear
1:35 PM 84.2 °F 83.0 °F 55.4 °F 37% 29.94 in 10.0 mi SW 12.7 mph 19.6 mph N/A   Clear
1:55 PM 84.2 °F 83.0 °F 55.4 °F 37% 29.94 in 10.0 mi SW 13.8 mph 20.7 mph N/A   Clear
2:15 PM 84.2 °F 83.5 °F 57.2 °F 40% 29.94 in 10.0 mi SW 10.4 mph - N/A   Clear
2:35 PM 82.4 °F 82.0 °F 57.2 °F 42% 29.93 in 10.0 mi SW 16.1 mph - N/A   Clear
2:55 PM 82.4 °F 82.0 °F 57.2 °F 42% 29.93 in 10.0 mi SW 13.8 mph - N/A   Clear
3:15 PM 80.6 °F 80.8 °F 57.2 °F 45% 29.93 in 10.0 mi SSW 15.0 mph 23.0 mph N/A   Clear
3:55 PM 78.8 °F - 57.2 °F 47% 29.93 in 10.0 mi SSW 12.7 mph 24.2 mph N/A   Clear
4:15 PM 77.0 °F - 57.2 °F 50% 29.92 in 10.0 mi SSW 9.2 mph 17.3 mph N/A   Clear
4:35 PM 77.0 °F - 55.4 °F 47% 29.92 in 10.0 mi SSW 11.5 mph 20.7 mph N/A   Clear
4:55 PM 75.2 °F - 55.4 °F 50% 29.92 in 10.0 mi South 11.5 mph - N/A   Clear
5:15 PM 73.4 °F - 57.2 °F 57% 29.92 in 10.0 mi SSW 10.4 mph 19.6 mph N/A   Clear
5:35 PM 73.4 °F - 57.2 °F 57% 29.91 in 10.0 mi South 9.2 mph 19.6 mph N/A   Clear
5:55 PM 73.4 °F - 55.4 °F 53% 29.91 in 10.0 mi SSW 8.1 mph 18.4 mph N/A   Clear
6:15 PM 71.6 °F - 57.2 °F 60% 29.91 in 10.0 mi SW 10.4 mph 18.4 mph N/A   Clear
6:35 PM 71.6 °F - 55.4 °F 57% 29.91 in 10.0 mi Calm Calm 11.5 mph N/A   Clear
6:55 PM 68.0 °F - 55.4 °F 64% 29.91 in 10.0 mi SSW 10.4 mph - N/A   Clear
7:15 PM 68.0 °F - 55.4 °F 64% 29.91 in 10.0 mi SW 11.5 mph - N/A   Clear
7:35 PM 66.2 °F - 55.4 °F 68% 29.91 in 10.0 mi SSW 8.1 mph - N/A   Clear
7:55 PM 66.2 °F - 55.4 °F 68% 29.92 in 10.0 mi SSW 6.9 mph - N/A   Clear
8:15 PM 64.4 °F - 55.4 °F 73% 29.93 in 10.0 mi East 6.9 mph 12.7 mph N/A   Clear
8:35 PM 62.6 °F - 57.2 °F 82% 29.94 in 10.0 mi ENE 6.9 mph - N/A   Clear
8:55 PM 60.8 °F - 57.2 °F 88% 29.94 in 10.0 mi ENE 5.8 mph - N/A   Clear
9:15 PM 60.8 °F - 57.2 °F 88% 29.95 in 10.0 mi East 4.6 mph - N/A   Clear
9:35 PM 59.0 °F - 55.4 °F 88% 29.95 in 10.0 mi Calm Calm - N/A   Clear
9:55 PM 59.0 °F - 55.4 °F 88% 29.96 in 10.0 mi Calm Calm - N/A   Clear
10:15 PM 59.0 °F - 55.4 °F 88% 29.96 in 10.0 mi Calm Calm - N/A   Clear
10:35 PM 59.0 °F - 57.2 °F 94% 29.96 in 10.0 mi Calm Calm - N/A   Clear
10:55 PM 59.0 °F - 55.4 °F 88% 29.96 in 10.0 mi WSW 3.5 mph - N/A   Clear
11:15 PM 57.2 °F - 55.4 °F 94% 29.96 in 10.0 mi Calm Calm - N/A   Clear
11:35 PM 55.4 °F - 53.6 °F 94% 29.97 in 10.0 mi Calm Calm - N/A   Clear
11:55 PM 53.6 °F - 53.6 °F 100% 29.97 in 10.0 mi Calm Calm - N/A   Clear